Time;durP1;ratioP1;P1;durP2;ratioP2;P2;SDS_P1;SDS_P2;PMS_P1;PMS_P2;Temp;Humidity;BMP_temperature;BMP_pressure;BME280_temperature;BME280_humidity;BME280_pressure;Samples;Min_cycle;Max_cycle;Signal;HPM_P1;HPM_P2
2023/07/05 00:00:23;;;;;;;7.72;5.28;;;15.70;99.90;;;;;;5067383;28;20056;-80
2023/07/05 00:02:52;;;;;;;11.00;6.05;;;15.60;99.90;;;;;;5079368;28;20047;-79
2023/07/05 00:05:18;;;;;;;11.30;6.78;;;15.70;99.90;;;;;;5063314;28;20051;-80
2023/07/05 00:07:44;;;;;;;7.30;5.85;;;15.60;99.90;;;;;;5041688;28;20045;-80
2023/07/05 00:10:10;;;;;;;11.35;6.10;;;15.50;99.90;;;;;;5055365;28;20049;-80
2023/07/05 00:12:36;;;;;;;13.23;6.80;;;15.60;99.90;;;;;;5059382;28;20097;-80
2023/07/05 00:15:04;;;;;;;10.37;6.90;;;15.50;99.90;;;;;;5059799;28;20091;-80
2023/07/05 00:17:34;;;;;;;8.13;6.75;;;15.50;99.90;;;;;;5059042;28;20119;-80
2023/07/05 00:20:01;;;;;;;12.65;6.40;;;15.50;99.90;;;;;;5046984;28;20046;-79
2023/07/05 00:22:27;;;;;;;8.65;6.03;;;15.50;99.90;;;;;;5040681;28;20052;-80
2023/07/05 00:24:56;;;;;;;8.68;6.57;;;15.60;99.90;;;;;;5057700;28;20419;-79
2023/07/05 00:27:23;;;;;;;10.70;6.90;;;15.50;99.90;;;;;;5051845;28;20037;-80
2023/07/05 00:29:50;;;;;;;11.17;6.33;;;15.50;99.90;;;;;;5039152;28;20045;-79
2023/07/05 00:32:16;;;;;;;13.07;7.03;;;15.50;99.90;;;;;;5057234;28;20053;-80
2023/07/05 00:34:41;;;;;;;10.68;6.45;;;15.60;99.90;;;;;;5053796;28;20031;-81
2023/07/05 00:37:07;;;;;;;11.15;6.47;;;15.60;99.90;;;;;;5049424;28;20037;-81
2023/07/05 00:39:33;;;;;;;9.35;6.82;;;15.60;99.90;;;;;;5045168;28;20037;-82
2023/07/05 00:41:58;;;;;;;9.20;5.30;;;15.60;99.90;;;;;;5047093;28;20138;-81
2023/07/05 00:44:26;;;;;;;8.18;5.78;;;15.60;99.90;;;;;;5032493;28;20124;-81
2023/07/05 00:46:57;;;;;;;11.32;6.78;;;15.60;99.90;;;;;;5049137;28;20115;-81
2023/07/05 00:49:26;;;;;;;10.50;6.68;;;15.60;99.90;;;;;;5049873;28;20037;-80
2023/07/05 00:52:07;;;;;;;10.32;6.43;;;15.60;99.90;;;;;;5053173;28;20048;-80
2023/07/05 00:54:38;;;;;;;11.95;6.90;;;15.60;99.90;;;;;;5051227;28;20048;-80
2023/07/05 00:57:17;;;;;;;10.57;6.32;;;15.60;99.90;;;;;;5048337;28;20040;-81
2023/07/05 00:59:57;;;;;;;9.23;6.07;;;15.60;99.90;;;;;;5049947;28;20041;-80
2023/07/05 01:02:23;;;;;;;12.70;6.55;;;15.60;99.90;;;;;;5050365;28;20449;-80
2023/07/05 01:04:49;;;;;;;9.73;7.00;;;15.60;99.90;;;;;;5047262;28;20033;-81
2023/07/05 01:07:16;;;;;;;11.00;7.00;;;15.60;99.90;;;;;;5052118;28;20606;-81
2023/07/05 01:09:45;;;;;;;13.07;7.78;;;15.50;99.90;;;;;;5049800;28;20067;-80
2023/07/05 01:12:32;;;;;;;12.25;7.25;;;15.50;99.90;;;;;;5045365;28;20494;-81
2023/07/05 01:15:17;;;;;;;11.00;7.47;;;15.50;99.90;;;;;;5050869;28;20067;-80
2023/07/05 01:17:48;;;;;;;11.20;7.88;;;15.50;99.90;;;;;;5035341;28;20037;-80
2023/07/05 01:20:54;;;;;;;12.18;8.25;;;15.50;99.90;;;;;;5051096;28;20044;-80
2023/07/05 01:23:22;;;;;;;15.93;8.38;;;15.40;99.90;;;;;;5033560;28;21648;-80
2023/07/05 01:25:57;;;;;;;11.13;7.38;;;15.30;99.90;;;;;;5049184;28;20045;-80
2023/07/05 01:28:38;;;;;;;13.68;7.97;;;15.30;99.90;;;;;;5050971;28;20110;-80
2023/07/05 01:31:58;;;;;;;14.07;8.07;;;15.20;99.90;;;;;;5051083;28;20135;-79
2023/07/05 01:34:34;;;;;;;13.43;8.80;;;15.20;99.90;;;;;;4984592;28;20042;-78
2023/07/05 01:37:07;;;;;;;14.65;8.50;;;15.10;99.90;;;;;;4986047;28;20528;-77
2023/07/05 01:39:33;;;;;;;12.40;8.50;;;15.10;99.90;;;;;;4984054;28;20042;-78
2023/07/05 01:41:59;;;;;;;12.93;8.90;;;15.00;99.90;;;;;;4985476;28;20058;-78
2023/07/05 01:44:26;;;;;;;11.25;8.13;;;15.00;99.90;;;;;;4982161;28;20142;-78
2023/07/05 01:47:03;;;;;;;12.68;8.60;;;14.90;99.90;;;;;;4986763;28;20082;-77
2023/07/05 01:49:47;;;;;;;13.75;8.80;;;15.00;99.90;;;;;;4986674;28;20164;-78
2023/07/05 01:52:53;;;;;;;13.32;9.25;;;14.90;99.90;;;;;;4987120;28;20478;-78
2023/07/05 01:55:25;;;;;;;15.20;8.70;;;14.90;99.90;;;;;;4986628;28;20102;-78
2023/07/05 01:58:07;;;;;;;12.88;8.85;;;14.90;99.90;;;;;;4975865;28;20117;-78
2023/07/05 02:00:37;;;;;;;14.45;9.23;;;14.90;99.90;;;;;;4983437;28;20057;-78
2023/07/05 02:03:08;;;;;;;13.30;9.13;;;14.90;99.90;;;;;;4990105;28;20059;-78
2023/07/05 02:05:35;;;;;;;11.65;8.55;;;14.90;99.90;;;;;;4985620;28;20063;-78
2023/07/05 02:08:01;;;;;;;12.88;9.43;;;14.80;99.90;;;;;;5009607;28;20411;-79
2023/07/05 02:10:28;;;;;;;15.55;9.32;;;14.90;99.90;;;;;;5054512;28;20044;-79
2023/07/05 02:12:55;;;;;;;11.02;9.05;;;14.90;99.90;;;;;;5042980;28;20045;-79
2023/07/05 02:15:21;;;;;;;13.32;9.23;;;14.90;99.90;;;;;;5037684;28;20172;-80
2023/07/05 02:17:47;;;;;;;14.02;8.45;;;14.80;99.90;;;;;;5055835;28;20462;-78
2023/07/05 02:20:13;;;;;;;12.27;9.07;;;14.80;99.90;;;;;;5047706;28;20120;-78
2023/07/05 02:22:38;;;;;;;14.30;9.55;;;14.80;99.90;;;;;;5031689;28;20102;-78
2023/07/05 02:25:05;;;;;;;16.40;9.25;;;14.80;99.90;;;;;;5059143;28;20092;-79
2023/07/05 02:27:31;;;;;;;12.43;9.27;;;14.80;99.90;;;;;;5049141;28;20074;-78
2023/07/05 02:29:56;;;;;;;14.60;9.10;;;14.80;99.90;;;;;;5040449;28;20037;-78
2023/07/05 02:32:23;;;;;;;14.75;10.18;;;14.80;99.90;;;;;;5059117;28;20411;-78
2023/07/05 02:34:49;;;;;;;12.38;8.98;;;14.80;99.90;;;;;;5049061;28;20056;-78
2023/07/05 02:37:15;;;;;;;11.98;9.05;;;14.80;99.90;;;;;;5039780;28;20042;-78
2023/07/05 02:39:41;;;;;;;15.43;10.23;;;14.80;99.90;;;;;;5055781;28;20056;-78
2023/07/05 02:42:08;;;;;;;14.15;9.88;;;14.80;99.90;;;;;;5035200;28;20041;-78
2023/07/05 02:44:34;;;;;;;11.00;9.60;;;14.80;99.90;;;;;;5032947;28;20048;-78
2023/07/05 02:47:00;;;;;;;15.45;9.57;;;14.80;99.90;;;;;;5050645;28;20041;-79
2023/07/05 02:49:26;;;;;;;15.98;10.20;;;14.80;99.90;;;;;;5048901;28;20098;-78
2023/07/05 02:51:52;;;;;;;11.18;9.70;;;14.80;99.90;;;;;;5045185;28;20049;-78
2023/07/05 02:54:18;;;;;;;12.60;9.07;;;14.80;99.90;;;;;;5029800;28;20071;-78
2023/07/05 02:56:43;;;;;;;14.55;10.25;;;14.80;99.90;;;;;;5049820;28;20068;-79
2023/07/05 02:59:09;;;;;;;12.50;9.77;;;14.80;99.90;;;;;;5036805;28;20037;-79
2023/07/05 03:01:35;;;;;;;14.50;9.57;;;14.90;99.90;;;;;;5018605;28;20037;-78
2023/07/05 03:04:01;;;;;;;11.32;9.10;;;14.90;99.90;;;;;;5049919;28;20087;-79
2023/07/05 03:06:26;;;;;;;13.07;9.70;;;14.90;99.90;;;;;;5053786;28;20033;-79
2023/07/05 03:08:52;;;;;;;13.38;9.82;;;14.90;99.90;;;;;;5031410;28;20128;-79
2023/07/05 03:11:18;;;;;;;12.85;9.13;;;14.90;99.90;;;;;;5037277;28;20061;-79
2023/07/05 03:13:44;;;;;;;10.82;8.98;;;14.90;99.90;;;;;;5054825;28;20041;-79
2023/07/05 03:16:10;;;;;;;13.18;8.43;;;15.00;99.90;;;;;;5037428;28;20961;-79
2023/07/05 03:18:35;;;;;;;11.73;9.27;;;15.10;99.90;;;;;;5045925;28;20132;-79
2023/07/05 03:21:01;;;;;;;14.23;9.98;;;15.10;99.90;;;;;;5048720;28;20120;-79
2023/07/05 03:23:27;;;;;;;11.60;9.70;;;15.10;99.90;;;;;;5047505;28;20095;-81
2023/07/05 03:25:58;;;;;;;15.10;9.90;;;15.20;99.90;;;;;;5049022;28;20041;-81
2023/07/05 03:28:27;;;;;;;10.23;9.20;;;15.10;99.90;;;;;;5032038;28;20140;-80
2023/07/05 03:30:56;;;;;;;11.48;10.00;;;;;;;;;;5052057;28;20411;-82
2023/07/05 03:33:22;;;;;;;14.93;9.93;;;;;;;;;;5035959;28;20095;-82
2023/07/05 03:35:59;;;;;;;11.32;9.52;;;15.20;99.90;;;;;;5052907;28;20045;-82
2023/07/05 03:38:27;;;;;;;12.38;9.32;;;15.30;99.90;;;;;;5054569;28;20033;-82
2023/07/05 03:41:12;;;;;;;;;;;15.30;99.90;;;;;;5027260;28;20080;-82
2023/07/05 03:43:38;;;;;;;10.75;8.82;;;15.40;99.90;;;;;;5053178;28;19927;-82
2023/07/05 03:46:06;;;;;;;10.57;9.45;;;15.30;99.90;;;;;;5022794;28;20040;-82
2023/07/05 03:48:35;;;;;;;11.95;9.30;;;15.40;99.90;;;;;;5051893;28;20222;-82
2023/07/05 03:51:01;;;;;;;11.57;9.43;;;15.40;99.90;;;;;;5016440;28;20041;-82
2023/07/05 03:53:27;;;;;;;9.82;8.10;;;;;;;;;;5049151;28;20039;-82
2023/07/05 03:55:53;;;;;;;9.73;8.52;;;15.70;99.90;;;;;;5047505;28;20506;-82
2023/07/05 03:58:20;;;;;;;9.55;8.23;;;15.60;99.90;;;;;;5049147;28;20041;-80
2023/07/05 04:00:46;;;;;;;7.28;6.30;;;;;;;;;;5030911;28;20045;-81
2023/07/05 04:03:14;;;;;;;9.75;7.10;;;15.80;99.90;;;;;;5050422;28;20144;-81
2023/07/05 04:05:41;;;;;;;9.13;7.20;;;15.80;99.90;;;;;;5050579;28;20088;-82
2023/07/05 04:08:06;;;;;;;8.68;6.40;;;15.80;99.90;;;;;;5035596;28;20040;-82
2023/07/05 04:10:32;;;;;;;8.70;6.15;;;15.80;99.90;;;;;;5048166;28;20060;-81
2023/07/05 04:12:58;;;;;;;9.80;5.70;;;15.80;99.90;;;;;;5027685;28;20087;-82
2023/07/05 04:15:23;;;;;;;6.10;5.15;;;15.80;99.90;;;;;;5050940;28;20060;-82
2023/07/05 04:17:49;;;;;;;6.43;4.88;;;15.80;99.90;;;;;;5034792;28;20399;-83
2023/07/05 04:20:15;;;;;;;5.18;4.68;;;15.90;99.90;;;;;;5052109;28;20391;-82
2023/07/05 04:22:41;;;;;;;6.72;4.32;;;15.80;99.90;;;;;;5052656;28;20051;-82
2023/07/05 04:25:08;;;;;;;5.80;4.00;;;15.90;99.90;;;;;;5048559;28;20049;-82
2023/07/05 04:27:35;;;;;;;3.97;3.60;;;15.80;99.90;;;;;;5048434;28;20041;-82
2023/07/05 04:30:03;;;;;;;5.55;3.80;;;15.80;99.90;;;;;;5050242;28;20037;-82
2023/07/05 04:32:29;;;;;;;4.93;3.40;;;15.70;99.90;;;;;;5031889;28;20041;-82
2023/07/05 04:34:54;;;;;;;6.57;3.35;;;15.60;99.90;;;;;;5048977;28;20453;-84
2023/07/05 04:37:20;;;;;;;5.47;3.40;;;15.50;99.90;;;;;;5046330;28;20075;-82
2023/07/05 04:39:46;;;;;;;6.95;3.50;;;15.40;99.90;;;;;;5047568;28;20104;-85
2023/07/05 04:42:11;;;;;;;3.63;3.33;;;15.30;99.90;;;;;;5047137;28;20044;-84
2023/07/05 04:44:37;;;;;;;7.07;3.90;;;15.10;99.90;;;;;;5049184;28;20037;-84
2023/07/05 04:47:03;;;;;;;5.55;3.83;;;15.00;99.90;;;;;;5047019;28;20052;-84
2023/07/05 04:49:29;;;;;;;5.93;4.10;;;;;;;;;;5047985;28;20044;-85
2023/07/05 04:51:55;;;;;;;4.22;3.55;;;14.90;99.90;;;;;;5046855;28;20483;-85
2023/07/05 04:54:20;;;;;;;5.65;3.60;;;14.80;99.90;;;;;;5051305;28;20036;-87
2023/07/05 04:56:46;;;;;;;4.75;3.63;;;;;;;;;;5046259;28;20041;-86
2023/07/05 04:59:12;;;;;;;4.00;3.55;;;14.70;99.90;;;;;;5050170;28;20033;-85
2023/07/05 05:01:39;;;;;;;5.68;3.90;;;14.70;99.90;;;;;;5048657;28;20495;-85
2023/07/05 05:04:05;;;;;;;4.93;4.00;;;14.70;99.90;;;;;;5047412;28;20122;-85
2023/07/05 05:06:30;;;;;;;7.07;4.07;;;14.60;99.90;;;;;;5030827;28;20689;-83
2023/07/05 05:08:56;;;;;;;6.38;3.72;;;14.80;99.90;;;;;;5050131;28;20052;-84
2023/07/05 05:11:22;;;;;;;3.88;3.58;;;15.10;99.90;;;;;;5049560;28;20052;-84
2023/07/05 05:13:49;;;;;;;5.60;3.50;;;15.30;99.90;;;;;;5054052;28;20043;-82
2023/07/05 05:16:15;;;;;;;11.93;3.90;;;15.40;99.90;;;;;;5053857;28;20043;-82
2023/07/05 05:18:43;;;;;;;6.63;3.45;;;15.30;99.90;;;;;;5058298;28;20120;-83
2023/07/05 05:21:09;;;;;;;3.83;3.35;;;15.10;99.90;;;;;;5048442;28;20123;-83
2023/07/05 05:23:35;;;;;;;4.97;3.58;;;15.00;99.90;;;;;;5032639;28;20451;-83
2023/07/05 05:26:02;;;;;;;4.80;3.13;;;15.00;99.90;;;;;;5051274;28;20052;-84
2023/07/05 05:28:29;;;;;;;5.40;3.25;;;15.00;99.90;;;;;;5051076;28;20040;-84
2023/07/05 05:31:09;;;;;;;4.43;3.45;;;15.00;99.90;;;;;;5025227;28;20045;-84
2023/07/05 05:33:36;;;;;;;3.78;3.35;;;15.00;99.90;;;;;;5030088;28;20755;-84
2023/07/05 05:36:02;;;;;;;3.88;3.30;;;14.90;99.90;;;;;;5052886;28;20040;-84
2023/07/05 05:38:28;;;;;;;5.22;3.28;;;15.00;99.90;;;;;;5052759;28;20048;-83
2023/07/05 05:41:01;;;;;;;4.60;3.30;;;14.90;99.90;;;;;;5057895;28;20041;-82
2023/07/05 05:43:27;;;;;;;5.75;3.20;;;14.90;99.90;;;;;;5064585;28;20040;-83
2023/07/05 05:45:53;;;;;;;4.53;3.30;;;14.90;99.90;;;;;;5042003;28;20045;-84
2023/07/05 05:48:18;;;;;;;4.97;3.70;;;14.90;99.90;;;;;;5056759;28;20048;-84
2023/07/05 05:50:45;;;;;;;6.25;3.60;;;14.90;99.90;;;;;;5051144;28;20108;-84
2023/07/05 05:53:11;;;;;;;4.90;3.67;;;14.90;99.90;;;;;;5032141;28;20044;-84
2023/07/05 05:55:38;;;;;;;4.20;3.70;;;15.00;99.90;;;;;;5050465;28;20403;-84
2023/07/05 05:58:05;;;;;;;4.82;3.47;;;15.10;99.90;;;;;;5036180;28;20040;-82
2023/07/05 06:00:31;;;;;;;4.18;3.60;;;15.10;99.90;;;;;;5033788;28;20499;-83
2023/07/05 06:02:57;;;;;;;4.97;3.95;;;15.40;99.90;;;;;;5017527;28;20106;-83
2023/07/05 06:05:23;;;;;;;6.68;3.90;;;15.20;99.90;;;;;;5046861;28;20034;-82
2023/07/05 06:07:49;;;;;;;6.20;3.83;;;15.00;99.90;;;;;;5050314;28;20131;-83
2023/07/05 06:10:14;;;;;;;5.25;4.05;;;15.00;99.90;;;;;;5034456;28;20127;-83
2023/07/05 06:12:41;;;;;;;4.75;3.80;;;15.00;99.90;;;;;;5049739;28;20061;-82
2023/07/05 06:15:10;;;;;;;8.45;3.92;;;15.00;99.90;;;;;;5055735;28;20177;-83
2023/07/05 06:17:36;;;;;;;10.35;3.72;;;15.00;99.90;;;;;;5051169;28;20041;-84
2023/07/05 06:20:01;;;;;;;9.40;3.70;;;15.20;99.90;;;;;;5035917;28;20033;-82
2023/07/05 06:22:27;;;;;;;6.30;3.60;;;15.30;99.90;;;;;;5052651;28;20105;-83
2023/07/05 06:24:53;;;;;;;4.63;3.33;;;15.40;99.90;;;;;;5052306;28;20156;-83
2023/07/05 06:27:18;;;;;;;5.57;4.13;;;15.40;99.90;;;;;;5055024;28;20053;-83
2023/07/05 06:29:44;;;;;;;7.40;4.53;;;15.40;99.90;;;;;;5056143;28;20128;-82
2023/07/05 06:32:10;;;;;;;6.43;3.28;;;15.40;99.90;;;;;;5054077;28;20127;-82
2023/07/05 06:34:35;;;;;;;4.70;3.67;;;15.50;99.90;;;;;;5035130;28;20049;-83
2023/07/05 06:37:01;;;;;;;5.57;3.70;;;15.70;99.90;;;;;;5048954;28;20048;-83
2023/07/05 06:39:26;;;;;;;4.22;3.42;;;15.60;99.90;;;;;;5054781;28;20040;-82
2023/07/05 06:41:52;;;;;;;4.70;3.42;;;15.60;99.90;;;;;;5038961;28;20042;-82
2023/07/05 06:44:18;;;;;;;5.03;3.33;;;15.60;99.90;;;;;;5051260;28;20428;-82
2023/07/05 06:46:44;;;;;;;5.57;3.90;;;15.50;99.90;;;;;;5054130;28;20045;-82
2023/07/05 06:49:09;;;;;;;4.78;3.85;;;15.80;99.90;;;;;;5052456;28;20394;-82
2023/07/05 06:51:35;;;;;;;4.15;3.47;;;16.00;99.90;;;;;;5050970;28;20033;-82
2023/07/05 06:54:00;;;;;;;8.98;3.65;;;15.60;99.90;;;;;;5052627;28;20040;-82
2023/07/05 06:56:26;;;;;;;5.78;2.90;;;15.60;99.90;;;;;;5053329;28;20037;-82
2023/07/05 06:58:52;;;;;;;7.10;4.13;;;15.50;99.90;;;;;;5051657;28;20121;-82
2023/07/05 07:01:17;;;;;;;4.70;3.50;;;15.50;99.90;;;;;;5050658;28;20136;-82
2023/07/05 07:03:43;;;;;;;8.68;3.22;;;15.50;99.90;;;;;;5053303;28;20045;-81
2023/07/05 07:06:10;;;;;;;5.28;3.50;;;15.50;99.90;;;;;;5051512;28;20120;-82
2023/07/05 07:08:38;;;;;;;6.37;3.63;;;15.60;99.90;;;;;;5051173;28;20444;-80
2023/07/05 07:11:05;;;;;;;7.90;3.78;;;15.50;99.90;;;;;;5049782;28;20045;-82
2023/07/05 07:13:32;;;;;;;3.65;3.00;;;15.50;99.90;;;;;;5049305;28;20045;-83
2023/07/05 07:16:02;;;;;;;6.20;3.58;;;15.60;99.90;;;;;;5034907;28;20044;-79
2023/07/05 07:18:28;;;;;;;6.88;3.38;;;;;;;;;;5053219;28;20037;-83
2023/07/05 07:20:54;;;;;;;6.07;3.10;;;15.90;99.90;;;;;;5046006;28;20037;-81
2023/07/05 07:23:21;;;;;;;7.00;3.05;;;15.80;99.90;;;;;;5036277;28;20488;-81
2023/07/05 07:25:47;;;;;;;4.50;3.15;;;15.90;99.90;;;;;;5047957;28;20033;-82
2023/07/05 07:28:13;;;;;;;4.60;2.95;;;16.30;99.90;;;;;;5050816;28;20071;-81
2023/07/05 07:30:39;;;;;;;3.47;2.70;;;;;;;;;;5047277;28;20049;-83
2023/07/05 07:33:05;;;;;;;6.38;2.40;;;16.00;99.90;;;;;;5032530;28;20068;-81
2023/07/05 07:35:31;;;;;;;4.25;2.58;;;16.00;99.90;;;;;;5048843;28;20091;-79
2023/07/05 07:37:56;;;;;;;4.30;2.47;;;15.90;99.90;;;;;;5050928;28;20244;-82
2023/07/05 07:40:22;;;;;;;6.35;2.72;;;15.90;99.90;;;;;;5032737;28;20403;-80
2023/07/05 07:42:49;;;;;;;4.10;2.50;;;15.90;99.90;;;;;;5030890;28;20084;-82
2023/07/05 07:45:16;;;;;;;3.13;2.23;;;15.50;99.90;;;;;;5044337;28;20072;-84
2023/07/05 07:47:41;;;;;;;4.38;2.10;;;15.10;99.90;;;;;;5050751;28;20092;-81
2023/07/05 07:50:12;;;;;;;4.20;2.58;;;14.90;99.90;;;;;;5051706;28;20128;-81
2023/07/05 07:52:38;;;;;;;5.30;2.47;;;14.80;99.90;;;;;;5049984;28;20045;-80
2023/07/05 07:55:04;;;;;;;3.03;1.95;;;15.00;99.90;;;;;;5047967;28;20025;-81
2023/07/05 07:57:30;;;;;;;4.90;1.90;;;15.10;99.90;;;;;;5054036;28;20510;-81
2023/07/05 07:59:55;;;;;;;3.22;1.80;;;15.40;99.90;;;;;;5053592;28;20044;-82
2023/07/05 08:02:22;;;;;;;2.47;1.50;;;15.40;99.90;;;;;;5049571;28;20041;-82
2023/07/05 08:04:47;;;;;;;4.65;1.63;;;15.30;99.90;;;;;;5033889;28;20384;-81
2023/07/05 08:07:16;;;;;;;3.47;1.27;;;15.20;99.90;;;;;;5037918;28;20045;-82
2023/07/05 08:09:42;;;;;;;4.88;1.33;;;15.10;99.90;;;;;;5034309;28;20136;-80
2023/07/05 08:12:08;;;;;;;1.88;1.50;;;15.10;99.90;;;;;;5050573;28;20083;-82
2023/07/05 08:14:34;;;;;;;1.48;1.10;;;15.00;99.90;;;;;;5054671;28;20087;-81
2023/07/05 08:17:00;;;;;;;2.15;1.10;;;14.90;99.90;;;;;;5043367;28;20033;-82
2023/07/05 08:19:25;;;;;;;3.83;1.13;;;14.60;99.90;;;;;;5062070;28;20393;-82
2023/07/05 08:21:51;;;;;;;3.92;1.13;;;14.70;99.90;;;;;;5056431;28;20044;-81
2023/07/05 08:24:17;;;;;;;3.47;1.20;;;14.30;99.90;;;;;;5053322;28;20079;-82
2023/07/05 08:26:43;;;;;;;1.70;1.40;;;14.20;99.90;;;;;;5059912;28;20033;-81
2023/07/05 08:29:09;;;;;;;1.50;1.13;;;14.00;99.90;;;;;;5049024;28;20042;-82
2023/07/05 08:31:35;;;;;;;3.13;1.20;;;13.90;99.90;;;;;;5053737;28;20033;-82
2023/07/05 08:34:01;;;;;;;7.90;1.25;;;13.80;99.90;;;;;;5048664;28;20041;-82
2023/07/05 08:36:36;;;;;;;1.85;1.20;;;13.80;99.90;;;;;;5035738;28;20075;-82
2023/07/05 08:39:05;;;;;;;2.45;1.45;;;13.80;99.90;;;;;;5051934;28;20124;-81
2023/07/05 08:41:43;;;;;;;3.67;1.45;;;13.90;99.90;;;;;;5034885;28;20048;-82
2023/07/05 08:44:16;;;;;;;3.65;1.10;;;13.90;99.90;;;;;;5052648;28;20044;-82
2023/07/05 08:46:44;;;;;;;3.85;1.48;;;13.90;99.90;;;;;;5054240;28;20049;-82
2023/07/05 08:49:21;;;;;;;3.13;1.17;;;14.00;99.90;;;;;;5053994;28;20103;-82
2023/07/05 08:51:47;;;;;;;2.88;1.10;;;14.00;99.90;;;;;;5059559;28;20491;-80
2023/07/05 08:54:13;;;;;;;3.72;1.30;;;13.90;99.90;;;;;;5053907;28;20434;-81
2023/07/05 08:56:48;;;;;;;4.45;1.50;;;13.90;99.90;;;;;;5055231;28;20502;-82
2023/07/05 08:59:27;;;;;;;3.50;1.30;;;13.90;99.90;;;;;;5056483;28;20072;-81
2023/07/05 09:01:56;;;;;;;3.53;1.45;;;13.80;99.90;;;;;;5051558;28;20474;-81
2023/07/05 09:04:29;;;;;;;3.45;1.83;;;13.80;99.90;;;;;;5050734;28;20049;-80
2023/07/05 09:07:12;;;;;;;4.43;1.50;;;13.70;99.90;;;;;;5026385;28;20060;-83
2023/07/05 09:09:56;;;;;;;4.68;1.73;;;13.90;99.90;;;;;;5052699;28;20049;-80
2023/07/05 09:12:28;;;;;;;4.68;1.52;;;;;;;;;;5047287;28;20057;-81
2023/07/05 09:15:16;;;;;;;3.03;1.73;;;13.60;99.90;;;;;;5057664;28;20037;-80
2023/07/05 09:18:23;;;;;;;4.13;1.70;;;13.50;99.90;;;;;;5056302;28;20403;-80
2023/07/05 09:20:52;;;;;;;;;;;13.40;99.90;;;;;;5037742;28;20037;-82
2023/07/05 09:23:50;;;;;;;2.20;1.52;;;13.40;99.90;;;;;;5042351;28;19921;-80
2023/07/05 09:26:20;;;;;;;4.20;1.80;;;13.30;99.90;;;;;;5031396;28;20064;-79
2023/07/05 09:29:08;;;;;;;4.75;1.60;;;13.30;99.90;;;;;;5053267;28;20057;-79
2023/07/05 09:31:36;;;;;;;2.75;1.60;;;13.30;99.90;;;;;;5046171;28;20041;-79
2023/07/05 09:34:19;;;;;;;2.78;1.63;;;13.20;99.90;;;;;;5037790;28;20043;-81
2023/07/05 09:36:47;;;;;;;3.38;1.58;;;13.20;99.90;;;;;;5032321;28;20056;-81
2023/07/05 09:39:38;;;;;;;4.82;2.03;;;13.20;99.90;;;;;;5039361;28;20447;-80
2023/07/05 09:42:09;;;;;;;5.22;1.85;;;13.30;99.90;;;;;;5052788;28;20044;-79
2023/07/05 09:44:35;;;;;;;14.98;2.42;;;13.50;99.90;;;;;;5047349;28;20049;-80
2023/07/05 09:47:01;;;;;;;6.25;1.98;;;13.60;99.90;;;;;;5053035;28;20059;-80
2023/07/05 09:49:27;;;;;;;5.20;2.10;;;13.70;99.90;;;;;;5050626;28;20067;-82
2023/07/05 09:51:54;;;;;;;9.38;2.28;;;13.80;99.90;;;;;;5048831;28;20585;-82
2023/07/05 09:54:26;;;;;;;4.95;1.65;;;13.90;99.90;;;;;;5053654;28;20048;-82
2023/07/05 09:57:01;;;;;;;10.50;2.33;;;13.90;99.90;;;;;;5052738;28;20048;-80
2023/07/05 09:59:27;;;;;;;8.27;2.17;;;14.10;99.90;;;;;;5051924;28;20041;-81
2023/07/05 10:02:01;;;;;;;5.07;1.75;;;14.20;99.90;;;;;;5057041;28;20113;-81
2023/07/05 10:04:27;;;;;;;9.43;2.13;;;14.40;99.90;;;;;;5054105;28;20089;-82
2023/07/05 10:06:54;;;;;;;5.45;1.85;;;14.70;99.90;;;;;;5038016;28;20601;-82
2023/07/05 10:09:23;;;;;;;5.25;1.85;;;14.80;99.90;;;;;;5052000;28;20286;-82
2023/07/05 10:11:57;;;;;;;6.97;1.80;;;14.80;99.90;;;;;;5050666;28;20037;-81
2023/07/05 10:14:33;;;;;;;7.55;1.80;;;14.70;99.90;;;;;;5053633;28;20048;-81
2023/07/05 10:17:06;;;;;;;6.55;2.10;;;14.60;99.90;;;;;;5051772;28;20040;-82
2023/07/05 10:19:40;;;;;;;8.02;2.05;;;14.50;99.90;;;;;;5049547;28;20043;-83
2023/07/05 10:22:22;;;;;;;6.18;1.83;;;14.40;99.90;;;;;;5037998;28;20051;-82
2023/07/05 10:24:51;;;;;;;7.85;2.00;;;14.40;99.90;;;;;;5018068;28;20041;-82
2023/07/05 10:27:40;;;;;;;7.05;2.20;;;14.40;99.90;;;;;;5048727;28;20037;-80
2023/07/05 10:30:13;;;;;;;7.85;2.05;;;14.40;99.90;;;;;;5057845;28;20052;-83
2023/07/05 10:32:44;;;;;;;11.27;2.22;;;14.40;99.90;;;;;;5040539;28;20122;-82
2023/07/05 10:35:22;;;;;;;9.65;2.13;;;14.30;99.90;;;;;;5060579;28;20040;-83
2023/07/05 10:37:48;;;;;;;7.68;1.90;;;14.30;99.90;;;;;;5051069;28;20072;-81
2023/07/05 10:40:14;;;;;;;8.25;1.85;;;14.20;99.90;;;;;;5056844;28;20045;-82
2023/07/05 10:42:49;;;;;;;9.52;2.20;;;14.20;99.90;;;;;;5057455;28;20036;-81
2023/07/05 10:45:18;;;;;;;4.78;1.90;;;14.10;99.90;;;;;;5057900;28;20500;-81
2023/07/05 10:47:46;;;;;;;6.88;2.10;;;13.90;99.90;;;;;;5024475;28;20091;-82
2023/07/05 10:50:15;;;;;;;4.97;1.92;;;13.90;99.90;;;;;;5055649;28;20084;-82
2023/07/05 10:53:10;;;;;;;5.20;1.73;;;13.80;99.90;;;;;;5054832;28;20565;-82
2023/07/05 10:56:14;;;;;;;5.53;1.80;;;13.70;99.90;;;;;;5062002;28;20286;-80
2023/07/05 10:58:48;;;;;;;7.05;1.73;;;13.50;99.90;;;;;;5056544;28;20049;-81
2023/07/05 11:01:29;;;;;;;6.65;2.00;;;13.40;99.90;;;;;;5051450;28;20049;-84
2023/07/05 11:04:11;;;;;;;4.68;1.58;;;13.40;99.90;;;;;;5054119;28;20049;-83
2023/07/05 11:06:40;;;;;;;4.18;1.77;;;13.40;99.90;;;;;;5052259;28;20068;-82
2023/07/05 11:09:10;;;;;;;5.65;1.65;;;13.40;99.90;;;;;;5039276;28;20554;-84
2023/07/05 11:11:42;;;;;;;6.57;2.38;;;13.50;99.90;;;;;;5054621;28;20045;-82
2023/07/05 11:14:13;;;;;;;10.10;2.30;;;13.50;99.90;;;;;;5053957;28;20036;-84
2023/07/05 11:16:42;;;;;;;8.77;2.20;;;13.50;99.90;;;;;;5053261;28;20086;-81
2023/07/05 11:19:23;;;;;;;7.47;2.42;;;13.50;99.90;;;;;;5034165;28;20044;-81
2023/07/05 11:21:51;;;;;;;7.65;2.40;;;13.50;99.90;;;;;;5038216;28;20045;-84
2023/07/05 11:24:32;;;;;;;8.75;2.47;;;13.50;99.90;;;;;;5037156;28;20049;-82
2023/07/05 11:26:58;;;;;;;5.72;2.40;;;13.60;99.90;;;;;;5057210;28;20082;-82
2023/07/05 11:29:27;;;;;;;6.22;2.03;;;13.60;99.90;;;;;;5053775;28;20056;-85
2023/07/05 11:31:52;;;;;;;9.40;2.33;;;13.60;99.90;;;;;;5053997;28;20044;-83
2023/07/05 11:34:21;;;;;;;5.88;2.13;;;13.70;99.90;;;;;;5051254;28;20041;-84
2023/07/05 11:37:09;;;;;;;7.47;2.45;;;13.80;99.90;;;;;;5055571;28;20051;-82
2023/07/05 11:39:37;;;;;;;10.48;3.17;;;13.80;99.90;;;;;;4969832;28;20050;-82
2023/07/05 11:42:12;;;;;;;9.75;2.90;;;14.00;99.90;;;;;;4971589;28;20125;-82
2023/07/05 11:44:39;;;;;;;8.95;2.65;;;14.10;99.90;;;;;;4967958;28;20103;-82
2023/07/05 11:47:06;;;;;;;9.60;2.72;;;14.10;99.90;;;;;;4967522;28;20058;-81
2023/07/05 11:49:34;;;;;;;;;;;14.10;99.90;;;;;;4975000;28;20494;-81
2023/07/05 11:52:04;;;;;;;5.68;2.40;;;13.90;99.90;;;;;;4966727;28;19934;-82
2023/07/05 11:54:45;;;;;;;6.50;3.00;;;13.90;99.90;;;;;;4969859;28;20205;-81
2023/07/05 11:57:12;;;;;;;8.45;2.78;;;13.90;99.90;;;;;;4972127;28;20066;-82
2023/07/05 11:59:55;;;;;;;8.77;2.80;;;14.00;99.90;;;;;;4974473;28;20088;-81
2023/07/05 12:02:48;;;;;;;8.40;2.97;;;14.00;99.90;;;;;;4971939;28;20050;-81
2023/07/05 12:05:20;;;;;;;6.88;3.05;;;14.00;99.90;;;;;;4956610;28;20050;-82
2023/07/05 12:07:52;;;;;;;13.50;2.95;;;13.90;99.90;;;;;;4970392;28;20051;-82
2023/07/05 12:10:22;;;;;;;7.68;2.60;;;13.90;99.90;;;;;;4975121;28;20133;-82
2023/07/05 12:12:47;;;;;;;9.15;2.60;;;14.00;99.90;;;;;;4954403;28;20093;-82
2023/07/05 12:15:14;;;;;;;7.97;2.30;;;14.00;99.90;;;;;;4972028;28;20576;-81
2023/07/05 12:17:40;;;;;;;8.20;2.50;;;14.20;99.90;;;;;;5045795;28;20052;-82
2023/07/05 12:20:30;;;;;;;5.72;2.30;;;14.20;99.90;;;;;;5053821;28;20406;-81
2023/07/05 12:22:58;;;;;;;8.57;3.05;;;14.50;99.90;;;;;;5034550;28;20037;-84
2023/07/05 12:25:25;;;;;;;8.57;3.00;;;14.50;99.90;;;;;;5034014;28;20041;-82
2023/07/05 12:27:51;;;;;;;11.07;3.25;;;14.70;99.90;;;;;;5027227;28;20495;-81
2023/07/05 12:30:20;;;;;;;8.98;2.90;;;14.70;99.90;;;;;;5043580;28;20041;-81
2023/07/05 12:32:51;;;;;;;11.07;3.05;;;14.70;99.90;;;;;;5029918;28;20076;-81
2023/07/05 12:35:20;;;;;;;8.70;2.70;;;14.80;99.90;;;;;;5053174;28;20045;-82
2023/07/05 12:37:49;;;;;;;11.63;3.28;;;14.90;99.90;;;;;;5050925;28;20060;-81
2023/07/05 12:40:34;;;;;;;6.50;2.60;;;14.90;99.90;;;;;;5034954;28;20356;-82
2023/07/05 12:43:03;;;;;;;8.63;2.67;;;14.90;99.90;;;;;;5046359;28;20503;-81
2023/07/05 12:45:29;;;;;;;9.95;3.05;;;15.10;99.90;;;;;;5048541;28;20068;-82
2023/07/05 12:47:54;;;;;;;9.45;3.20;;;15.10;99.90;;;;;;5048339;28;20522;-81
2023/07/05 12:50:23;;;;;;;7.60;3.00;;;15.30;99.90;;;;;;5055404;28;20396;-83
2023/07/05 12:53:11;;;;;;;7.78;2.80;;;15.60;99.90;;;;;;5051874;28;20187;-85
2023/07/05 12:55:38;;;;;;;;;;;15.80;99.90;;;;;;5056861;28;20045;-83
2023/07/05 12:58:06;;;;;;;9.23;3.27;;;16.30;99.90;;;;;;5032872;28;19952;-82
2023/07/05 13:00:34;;;;;;;5.72;2.50;;;16.50;99.90;;;;;;5053917;28;20079;-82